sensor_id;sensor_type;location;lat;lon;timestamp;pressure;altitude;pressure_sealevel;temperature;humidity
71795;BME280;59641;45.188;5.712;2023-08-06T00:00:38;99033.53;;;23.70;42.13
71795;BME280;59641;45.188;5.712;2023-08-06T00:03:03;99031.59;;;23.70;41.89
71795;BME280;59641;45.188;5.712;2023-08-06T00:05:29;99033.84;;;23.68;41.79
71795;BME280;59641;45.188;5.712;2023-08-06T00:07:54;99032.25;;;23.67;41.85
71795;BME280;59641;45.188;5.712;2023-08-06T00:10:19;99027.06;;;23.66;41.94
71795;BME280;59641;45.188;5.712;2023-08-06T00:12:45;99032.06;;;23.64;41.91
71795;BME280;59641;45.188;5.712;2023-08-06T00:15:10;99026.91;;;23.62;41.72
71795;BME280;59641;45.188;5.712;2023-08-06T00:17:36;99028.00;;;23.61;41.62
71795;BME280;59641;45.188;5.712;2023-08-06T00:20:02;99026.41;;;23.60;41.62
71795;BME280;59641;45.188;5.712;2023-08-06T00:22:37;99021.22;;;23.58;41.77
71795;BME280;59641;45.188;5.712;2023-08-06T00:25:06;99033.63;;;23.56;41.66
71795;BME280;59641;45.188;5.712;2023-08-06T00:27:32;99027.66;;;23.54;41.40
71795;BME280;59641;45.188;5.712;2023-08-06T00:30:00;99020.56;;;23.53;41.70
71795;BME280;59641;45.188;5.712;2023-08-06T00:32:25;99019.78;;;23.52;41.66
71795;BME280;59641;45.188;5.712;2023-08-06T00:34:51;99029.88;;;23.52;41.78
71795;BME280;59641;45.188;5.712;2023-08-06T00:37:16;99027.97;;;23.52;41.44
71795;BME280;59641;45.188;5.712;2023-08-06T00:39:42;99029.59;;;23.53;41.84
71795;BME280;59641;45.188;5.712;2023-08-06T00:42:09;99027.16;;;23.52;41.71
71795;BME280;59641;45.188;5.712;2023-08-06T00:44:34;99030.72;;;23.52;41.59
71795;BME280;59641;45.188;5.712;2023-08-06T00:47:00;99039.75;;;23.53;41.67
71795;BME280;59641;45.188;5.712;2023-08-06T00:49:26;99032.47;;;23.48;41.59
71795;BME280;59641;45.188;5.712;2023-08-06T00:51:52;99025.34;;;23.47;41.89
71795;BME280;59641;45.188;5.712;2023-08-06T00:54:17;99019.41;;;23.45;41.81
71795;BME280;59641;45.188;5.712;2023-08-06T00:56:43;99022.94;;;23.46;41.51
71795;BME280;59641;45.188;5.712;2023-08-06T00:59:10;99026.78;;;23.45;41.57
71795;BME280;59641;45.188;5.712;2023-08-06T01:01:35;99033.91;;;23.46;41.61
71795;BME280;59641;45.188;5.712;2023-08-06T01:04:01;99040.19;;;23.46;41.47
71795;BME280;59641;45.188;5.712;2023-08-06T01:06:48;99040.97;;;23.47;41.49
71795;BME280;59641;45.188;5.712;2023-08-06T01:11:48;99036.13;;;23.44;41.92
71795;BME280;59641;45.188;5.712;2023-08-06T01:14:25;99028.72;;;23.44;42.02
71795;BME280;59641;45.188;5.712;2023-08-06T01:16:53;99031.75;;;23.43;42.20
71795;BME280;59641;45.188;5.712;2023-08-06T01:19:20;99038.06;;;23.43;42.36
71795;BME280;59641;45.188;5.712;2023-08-06T01:21:46;99034.50;;;23.43;42.35
71795;BME280;59641;45.188;5.712;2023-08-06T01:24:12;99036.44;;;23.42;42.60
71795;BME280;59641;45.188;5.712;2023-08-06T01:26:39;99040.81;;;23.43;42.72
71795;BME280;59641;45.188;5.712;2023-08-06T01:31:41;99045.78;;;23.41;42.92
71795;BME280;59641;45.188;5.712;2023-08-06T01:34:17;99046.59;;;23.42;42.70
71795;BME280;59641;45.188;5.712;2023-08-06T01:36:43;99046.09;;;23.39;43.19
71795;BME280;59641;45.188;5.712;2023-08-06T01:39:09;99043.69;;;23.38;43.08
71795;BME280;59641;45.188;5.712;2023-08-06T01:41:35;99051.91;;;23.38;43.34
71795;BME280;59641;45.188;5.712;2023-08-06T01:44:00;99041.25;;;23.36;43.03
71795;BME280;59641;45.188;5.712;2023-08-06T01:46:26;99045.09;;;23.35;43.22
71795;BME280;59641;45.188;5.712;2023-08-06T01:48:51;99047.03;;;23.35;43.09
71795;BME280;59641;45.188;5.712;2023-08-06T01:51:16;99047.03;;;23.35;43.28
71795;BME280;59641;45.188;5.712;2023-08-06T01:53:42;99048.16;;;23.34;43.13
71795;BME280;59641;45.188;5.712;2023-08-06T01:56:07;99038.31;;;23.33;43.07
71795;BME280;59641;45.188;5.712;2023-08-06T01:58:32;99044.91;;;23.32;43.24
71795;BME280;59641;45.188;5.712;2023-08-06T02:00:58;99050.38;;;23.32;43.21
71795;BME280;59641;45.188;5.712;2023-08-06T02:03:23;99047.66;;;23.32;43.16
71795;BME280;59641;45.188;5.712;2023-08-06T02:05:48;99056.66;;;23.32;43.24
71795;BME280;59641;45.188;5.712;2023-08-06T02:08:14;99053.13;;;23.32;43.16
71795;BME280;59641;45.188;5.712;2023-08-06T02:10:39;99042.97;;;23.32;42.91
71795;BME280;59641;45.188;5.712;2023-08-06T02:13:04;99041.69;;;23.30;42.64
71795;BME280;59641;45.188;5.712;2023-08-06T02:15:30;99041.19;;;23.28;42.87
71795;BME280;59641;45.188;5.712;2023-08-06T02:17:55;99037.63;;;23.27;42.94
71795;BME280;59641;45.188;5.712;2023-08-06T02:20:20;99046.97;;;23.26;43.08
71795;BME280;59641;45.188;5.712;2023-08-06T02:22:46;99041.50;;;23.26;42.82
71795;BME280;59641;45.188;5.712;2023-08-06T02:25:11;99045.34;;;23.25;42.88
71795;BME280;59641;45.188;5.712;2023-08-06T02:27:37;99044.53;;;23.25;42.92
71795;BME280;59641;45.188;5.712;2023-08-06T02:30:03;99048.41;;;23.24;42.93
71795;BME280;59641;45.188;5.712;2023-08-06T02:32:29;99056.63;;;23.24;42.83
71795;BME280;59641;45.188;5.712;2023-08-06T02:34:56;99051.47;;;23.22;43.00
71795;BME280;59641;45.188;5.712;2023-08-06T02:37:22;99053.38;;;23.22;43.14
71795;BME280;59641;45.188;5.712;2023-08-06T02:39:47;99049.00;;;23.21;42.69
71795;BME280;59641;45.188;5.712;2023-08-06T02:42:12;99049.34;;;23.19;42.84
71795;BME280;59641;45.188;5.712;2023-08-06T02:44:38;99045.31;;;23.16;42.34
71795;BME280;59641;45.188;5.712;2023-08-06T02:47:03;99037.41;;;23.15;42.49
71795;BME280;59641;45.188;5.712;2023-08-06T02:49:29;99048.63;;;23.13;42.68
71795;BME280;59641;45.188;5.712;2023-08-06T02:51:54;99050.56;;;23.13;42.77
71795;BME280;59641;45.188;5.712;2023-08-06T02:54:20;99045.41;;;23.11;42.61
71795;BME280;59641;45.188;5.712;2023-08-06T02:56:45;99054.44;;;23.12;42.63
71795;BME280;59641;45.188;5.712;2023-08-06T02:59:14;99054.44;;;23.12;42.64
71795;BME280;59641;45.188;5.712;2023-08-06T03:01:39;99054.44;;;23.12;42.64
71795;BME280;59641;45.188;5.712;2023-08-06T03:04:05;99047.66;;;23.09;42.27
71795;BME280;59641;45.188;5.712;2023-08-06T03:06:31;99056.19;;;23.08;42.00
71795;BME280;59641;45.188;5.712;2023-08-06T03:08:56;99046.66;;;23.05;41.79
71795;BME280;59641;45.188;5.712;2023-08-06T03:11:22;99043.72;;;23.02;41.41
71795;BME280;59641;45.188;5.712;2023-08-06T03:13:48;99049.53;;;23.00;41.01
71795;BME280;59641;45.188;5.712;2023-08-06T03:16:13;99044.06;;;23.00;41.13
71795;BME280;59641;45.188;5.712;2023-08-06T03:18:39;99052.25;;;23.00;40.67
71795;BME280;59641;45.188;5.712;2023-08-06T03:21:04;99043.53;;;22.98;40.66
71795;BME280;59641;45.188;5.712;2023-08-06T03:23:30;99052.34;;;22.95;40.74
71795;BME280;59641;45.188;5.712;2023-08-06T03:25:55;99053.28;;;22.90;40.35
71795;BME280;59641;45.188;5.712;2023-08-06T03:28:20;99048.41;;;22.87;40.56
71795;BME280;59641;45.188;5.712;2023-08-06T03:30:47;99050.66;;;22.85;40.54
71795;BME280;59641;45.188;5.712;2023-08-06T03:33:12;99051.75;;;22.84;40.47
71795;BME280;59641;45.188;5.712;2023-08-06T03:35:38;99050.97;;;22.84;40.55
71795;BME280;59641;45.188;5.712;2023-08-06T03:38:03;99046.13;;;22.81;40.30
71795;BME280;59641;45.188;5.712;2023-08-06T03:40:28;99054.63;;;22.79;40.76
71795;BME280;59641;45.188;5.712;2023-08-06T03:42:54;99056.56;;;22.79;40.72
71795;BME280;59641;45.188;5.712;2023-08-06T03:45:19;99051.38;;;22.77;40.68
71795;BME280;59641;45.188;5.712;2023-08-06T03:47:44;99065.06;;;22.77;40.82
71795;BME280;59641;45.188;5.712;2023-08-06T03:50:10;99069.22;;;22.74;40.64
71795;BME280;59641;45.188;5.712;2023-08-06T03:52:35;99068.19;;;22.70;40.80
71795;BME280;59641;45.188;5.712;2023-08-06T03:55:00;99067.22;;;22.66;40.85
71795;BME280;59641;45.188;5.712;2023-08-06T03:57:26;99060.13;;;22.65;41.02
71795;BME280;59641;45.188;5.712;2023-08-06T03:59:51;99070.75;;;22.67;41.17
71795;BME280;59641;45.188;5.712;2023-08-06T04:02:17;99071.56;;;22.67;41.08
71795;BME280;59641;45.188;5.712;2023-08-06T04:04:42;99080.56;;;22.68;41.37
71795;BME280;59641;45.188;5.712;2023-08-06T04:07:07;99081.69;;;22.67;41.25
71795;BME280;59641;45.188;5.712;2023-08-06T04:09:33;99091.03;;;22.66;41.63
71795;BME280;59641;45.188;5.712;2023-08-06T04:11:58;99093.75;;;22.66;41.38
71795;BME280;59641;45.188;5.712;2023-08-06T04:14:25;99088.59;;;22.64;41.53
71795;BME280;59641;45.188;5.712;2023-08-06T04:16:51;99096.59;;;22.61;41.74
71795;BME280;59641;45.188;5.712;2023-08-06T04:19:16;99083.03;;;22.55;41.51
71795;BME280;59641;45.188;5.712;2023-08-06T04:21:41;99097.94;;;22.49;41.89
71795;BME280;59641;45.188;5.712;2023-08-06T04:24:07;99084.03;;;22.46;41.87
71795;BME280;59641;45.188;5.712;2023-08-06T04:26:32;99091.44;;;22.45;41.86
71795;BME280;59641;45.188;5.712;2023-08-06T04:28:57;99088.19;;;22.43;41.87
71795;BME280;59641;45.188;5.712;2023-08-06T04:31:23;99095.09;;;22.41;41.69
71795;BME280;59641;45.188;5.712;2023-08-06T04:33:48;99100.97;;;22.34;41.60
71795;BME280;59641;45.188;5.712;2023-08-06T04:36:14;99106.84;;;22.27;41.72
71795;BME280;59641;45.188;5.712;2023-08-06T04:38:39;99110.50;;;22.23;41.87
71795;BME280;59641;45.188;5.712;2023-08-06T04:41:09;99117.38;;;22.20;42.13
71795;BME280;59641;45.188;5.712;2023-08-06T04:43:34;99121.78;;;22.16;41.96
71795;BME280;59641;45.188;5.712;2023-08-06T04:46:00;99117.41;;;22.15;42.11
71795;BME280;59641;45.188;5.712;2023-08-06T04:48:25;99117.41;;;22.15;42.05
71795;BME280;59641;45.188;5.712;2023-08-06T04:50:50;99118.25;;;22.16;42.22
71795;BME280;59641;45.188;5.712;2023-08-06T04:53:16;99115.53;;;22.16;42.28
71795;BME280;59641;45.188;5.712;2023-08-06T04:55:42;99124.22;;;22.18;41.76
71795;BME280;59641;45.188;5.712;2023-08-06T04:58:10;99128.56;;;22.19;42.06
71795;BME280;59641;45.188;5.712;2023-08-06T05:00:35;99125.84;;;22.19;42.16
71795;BME280;59641;45.188;5.712;2023-08-06T05:03:00;99132.09;;;22.19;42.12
71795;BME280;59641;45.188;5.712;2023-08-06T05:05:26;99123.66;;;22.21;42.12
71795;BME280;59641;45.188;5.712;2023-08-06T05:07:54;99123.31;;;22.22;42.11
71795;BME280;59641;45.188;5.712;2023-08-06T05:10:19;99125.75;;;22.24;42.15
71795;BME280;59641;45.188;5.712;2023-08-06T05:12:45;99126.06;;;22.22;42.06
71795;BME280;59641;45.188;5.712;2023-08-06T05:15:10;99128.78;;;22.22;42.21
71795;BME280;59641;45.188;5.712;2023-08-06T05:17:36;99123.31;;;22.22;42.04
71795;BME280;59641;45.188;5.712;2023-08-06T05:20:01;99117.94;;;22.17;42.15
71795;BME280;59641;45.188;5.712;2023-08-06T05:22:26;99119.84;;;22.17;42.06
71795;BME280;59641;45.188;5.712;2023-08-06T05:24:52;99119.34;;;22.15;42.09
71795;BME280;59641;45.188;5.712;2023-08-06T05:27:17;99123.50;;;22.12;42.02
71795;BME280;59641;45.188;5.712;2023-08-06T05:29:44;99125.72;;;22.10;42.26
71795;BME280;59641;45.188;5.712;2023-08-06T05:32:10;99119.97;;;22.11;42.04
71795;BME280;59641;45.188;5.712;2023-08-06T05:34:35;99113.97;;;22.09;42.16
71795;BME280;59641;45.188;5.712;2023-08-06T05:37:00;99128.75;;;22.08;42.33
71795;BME280;59641;45.188;5.712;2023-08-06T05:39:26;99129.34;;;22.05;42.30
71795;BME280;59641;45.188;5.712;2023-08-06T05:41:51;99129.66;;;22.04;42.24
71795;BME280;59641;45.188;5.712;2023-08-06T05:44:17;99128.34;;;22.01;42.44
71795;BME280;59641;45.188;5.712;2023-08-06T05:46:43;99138.53;;;21.96;42.32
71795;BME280;59641;45.188;5.712;2023-08-06T05:49:08;99157.97;;;21.94;42.45
71795;BME280;59641;45.188;5.712;2023-08-06T05:51:33;99154.72;;;21.92;42.17
71795;BME280;59641;45.188;5.712;2023-08-06T05:53:59;99168.16;;;21.88;42.49
71795;BME280;59641;45.188;5.712;2023-08-06T05:56:24;99180.50;;;21.86;42.32
71795;BME280;59641;45.188;5.712;2023-08-06T05:58:49;99185.16;;;21.85;42.56
71795;BME280;59641;45.188;5.712;2023-08-06T06:01:18;99183.31;;;21.81;42.79
71795;BME280;59641;45.188;5.712;2023-08-06T06:03:43;99190.09;;;21.83;42.64
71795;BME280;59641;45.188;5.712;2023-08-06T06:06:08;99192.63;;;21.80;42.54
71795;BME280;59641;45.188;5.712;2023-08-06T06:08:34;99196.97;;;21.81;42.65
71795;BME280;59641;45.188;5.712;2023-08-06T06:10:59;99202.44;;;21.81;42.33
71795;BME280;59641;45.188;5.712;2023-08-06T06:13:24;99207.63;;;21.82;42.58
71795;BME280;59641;45.188;5.712;2023-08-06T06:15:50;99215.50;;;21.84;42.70
71795;BME280;59641;45.188;5.712;2023-08-06T06:18:15;99229.38;;;21.87;42.41
71795;BME280;59641;45.188;5.712;2023-08-06T06:20:40;99224.72;;;21.88;42.28
71795;BME280;59641;45.188;5.712;2023-08-06T06:23:06;99225.84;;;21.87;42.31
71795;BME280;59641;45.188;5.712;2023-08-06T06:25:31;99229.38;;;21.87;42.52
71795;BME280;59641;45.188;5.712;2023-08-06T06:27:56;99234.03;;;21.87;42.32
71795;BME280;59641;45.188;5.712;2023-08-06T06:30:23;99235.66;;;21.88;42.48
71795;BME280;59641;45.188;5.712;2023-08-06T06:32:49;99238.09;;;21.89;42.80
71795;BME280;59641;45.188;5.712;2023-08-06T06:35:14;99245.78;;;21.87;43.08
71795;BME280;59641;45.188;5.712;2023-08-06T06:37:40;99249.19;;;21.79;43.08
71795;BME280;59641;45.188;5.712;2023-08-06T06:40:05;99254.50;;;21.70;43.25
71795;BME280;59641;45.188;5.712;2023-08-06T06:42:31;99255.97;;;21.63;43.29
71795;BME280;59641;45.188;5.712;2023-08-06T06:44:56;99254.66;;;21.60;43.82
71795;BME280;59641;45.188;5.712;2023-08-06T06:47:21;99259.88;;;21.57;44.34
71795;BME280;59641;45.188;5.712;2023-08-06T06:49:47;99270.16;;;21.46;44.80
71795;BME280;59641;45.188;5.712;2023-08-06T06:52:12;99286.31;;;21.37;45.26
71795;BME280;59641;45.188;5.712;2023-08-06T06:54:37;99284.53;;;21.27;45.13
71795;BME280;59641;45.188;5.712;2023-08-06T06:57:03;99291.19;;;21.21;45.82
71795;BME280;59641;45.188;5.712;2023-08-06T06:59:28;99288.94;;;21.23;45.74
71795;BME280;59641;45.188;5.712;2023-08-06T07:01:54;99302.31;;;21.25;46.20
71795;BME280;59641;45.188;5.712;2023-08-06T07:04:19;99295.47;;;21.27;45.66
71795;BME280;59641;45.188;5.712;2023-08-06T07:06:44;99300.31;;;21.31;45.50
71795;BME280;59641;45.188;5.712;2023-08-06T07:09:10;99304.97;;;21.30;45.05
71795;BME280;59641;45.188;5.712;2023-08-06T07:11:35;99306.66;;;21.26;44.67
71795;BME280;59641;45.188;5.712;2023-08-06T07:14:01;99303.13;;;21.25;44.33
71795;BME280;59641;45.188;5.712;2023-08-06T07:16:26;99297.97;;;21.24;44.02
71795;BME280;59641;45.188;5.712;2023-08-06T07:18:53;99292.78;;;21.22;44.02
71795;BME280;59641;45.188;5.712;2023-08-06T07:21:19;99288.72;;;21.20;44.29
71795;BME280;59641;45.188;5.712;2023-08-06T07:23:45;99292.78;;;21.22;44.05
71795;BME280;59641;45.188;5.712;2023-08-06T07:26:10;99293.59;;;21.23;43.88
71795;BME280;59641;45.188;5.712;2023-08-06T07:28:36;99293.91;;;21.21;43.95
71795;BME280;59641;45.188;5.712;2023-08-06T07:31:03;99300.16;;;21.22;44.00
71795;BME280;59641;45.188;5.712;2023-08-06T07:33:29;99306.97;;;21.24;44.15
71795;BME280;59641;45.188;5.712;2023-08-06T07:35:54;99306.66;;;21.26;43.98
71795;BME280;59641;45.188;5.712;2023-08-06T07:38:19;99311.81;;;21.27;44.20
71795;BME280;59641;45.188;5.712;2023-08-06T07:40:45;99314.28;;;21.29;43.97
71795;BME280;59641;45.188;5.712;2023-08-06T07:43:10;99317.00;;;21.29;44.20
71795;BME280;59641;45.188;5.712;2023-08-06T07:45:36;99321.06;;;21.32;43.86
71795;BME280;59641;45.188;5.712;2023-08-06T07:48:03;99322.16;;;21.31;44.18
71795;BME280;59641;45.188;5.712;2023-08-06T07:50:28;99337.72;;;21.30;44.28
71795;BME280;59641;45.188;5.712;2023-08-06T07:52:53;99330.41;;;21.25;44.32
71795;BME280;59641;45.188;5.712;2023-08-06T07:55:19;99332.91;;;21.22;44.40
71795;BME280;59641;45.188;5.712;2023-08-06T07:57:44;99333.47;;;21.19;44.37
71795;BME280;59641;45.188;5.712;2023-08-06T08:00:10;99339.78;;;21.19;44.62
71795;BME280;59641;45.188;5.712;2023-08-06T08:02:35;99336.50;;;21.17;44.26
71795;BME280;59641;45.188;5.712;2023-08-06T08:05:00;99324.28;;;21.15;44.65
71795;BME280;59641;45.188;5.712;2023-08-06T08:07:26;99334.59;;;21.18;44.66
71795;BME280;59641;45.188;5.712;2023-08-06T08:09:54;99331.00;;;21.22;44.63
71795;BME280;59641;45.188;5.712;2023-08-06T08:12:19;99322.22;;;21.25;44.51
71795;BME280;59641;45.188;5.712;2023-08-06T08:14:44;99327.69;;;21.25;44.73
71795;BME280;59641;45.188;5.712;2023-08-06T08:17:10;99333.66;;;21.27;44.77
71795;BME280;59641;45.188;5.712;2023-08-06T08:19:36;99335.78;;;21.31;44.70
71795;BME280;59641;45.188;5.712;2023-08-06T08:22:02;99347.25;;;21.33;44.50
71795;BME280;59641;45.188;5.712;2023-08-06T08:24:28;99342.03;;;21.36;44.34
71795;BME280;59641;45.188;5.712;2023-08-06T08:26:55;99351.81;;;21.37;44.38
71795;BME280;59641;45.188;5.712;2023-08-06T08:29:21;99352.09;;;21.41;44.51
71795;BME280;59641;45.188;5.712;2023-08-06T08:31:47;99351.50;;;21.44;44.46
71795;BME280;59641;45.188;5.712;2023-08-06T08:34:15;99343.53;;;21.47;44.66
71795;BME280;59641;45.188;5.712;2023-08-06T08:36:40;99341.34;;;21.49;44.32
71795;BME280;59641;45.188;5.712;2023-08-06T08:39:05;99348.44;;;21.51;44.37
71795;BME280;59641;45.188;5.712;2023-08-06T08:41:31;99350.03;;;21.52;44.23
71795;BME280;59641;45.188;5.712;2023-08-06T08:43:58;99347.56;;;21.55;44.35
71795;BME280;59641;45.188;5.712;2023-08-06T08:46:26;99353.50;;;21.57;44.11
71795;BME280;59641;45.188;5.712;2023-08-06T08:48:53;99362.22;;;21.59;44.28
71795;BME280;59641;45.188;5.712;2023-08-06T08:51:19;99343.63;;;21.61;44.35
71795;BME280;59641;45.188;5.712;2023-08-06T08:53:47;99350.44;;;21.64;43.71
71795;BME280;59641;45.188;5.712;2023-08-06T08:56:13;99354.84;;;21.60;43.69
71795;BME280;59641;45.188;5.712;2023-08-06T08:58:39;99353.75;;;21.61;43.51
71795;BME280;59641;45.188;5.712;2023-08-06T09:01:06;99357.81;;;21.63;43.58
71795;BME280;59641;45.188;5.712;2023-08-06T09:03:32;99360.03;;;21.61;43.42
71795;BME280;59641;45.188;5.712;2023-08-06T09:05:59;99369.00;;;21.62;43.43
71795;BME280;59641;45.188;5.712;2023-08-06T09:08:34;99362.16;;;21.64;43.85
71795;BME280;59641;45.188;5.712;2023-08-06T09:11:02;99361.34;;;21.64;43.88
71795;BME280;59641;45.188;5.712;2023-08-06T09:13:29;99364.09;;;21.64;44.14
71795;BME280;59641;45.188;5.712;2023-08-06T09:15:55;99374.41;;;21.67;44.24
71795;BME280;59641;45.188;5.712;2023-08-06T09:18:27;99371.91;;;21.70;44.30
71795;BME280;59641;45.188;5.712;2023-08-06T09:20:54;99372.44;;;21.73;44.49
71795;BME280;59641;45.188;5.712;2023-08-06T09:23:20;99366.66;;;21.74;44.51
71795;BME280;59641;45.188;5.712;2023-08-06T09:25:45;99369.13;;;21.76;44.23
71795;BME280;59641;45.188;5.712;2023-08-06T09:28:11;99364.47;;;21.76;44.12
71795;BME280;59641;45.188;5.712;2023-08-06T09:30:37;99366.38;;;21.76;43.75
71795;BME280;59641;45.188;5.712;2023-08-06T09:33:03;99368.53;;;21.79;43.80
71795;BME280;59641;45.188;5.712;2023-08-06T09:35:30;99364.19;;;21.78;43.89
71795;BME280;59641;45.188;5.712;2023-08-06T09:38:04;99363.91;;;21.79;43.75
71795;BME280;59641;45.188;5.712;2023-08-06T09:40:32;99359.44;;;21.83;43.77
71795;BME280;59641;45.188;5.712;2023-08-06T09:42:59;99357.47;;;21.89;43.45
71795;BME280;59641;45.188;5.712;2023-08-06T09:45:33;99359.31;;;21.94;43.52
71795;BME280;59641;45.188;5.712;2023-08-06T09:48:00;99359.81;;;21.96;43.38
71795;BME280;59641;45.188;5.712;2023-08-06T09:50:30;99355.63;;;22.03;43.33
71795;BME280;59641;45.188;5.712;2023-08-06T09:53:00;99355.25;;;22.10;43.21
71795;BME280;59641;45.188;5.712;2023-08-06T09:55:26;99357.41;;;22.13;42.82
71795;BME280;59641;45.188;5.712;2023-08-06T09:57:52;99358.41;;;22.17;42.94
71795;BME280;59641;45.188;5.712;2023-08-06T10:00:18;99357.25;;;22.23;42.78
71795;BME280;59641;45.188;5.712;2023-08-06T10:02:45;99357.78;;;22.25;42.82
71795;BME280;59641;45.188;5.712;2023-08-06T10:05:10;99360.72;;;22.29;42.80
71795;BME280;59641;45.188;5.712;2023-08-06T10:07:37;99355.78;;;22.31;42.41
71795;BME280;59641;45.188;5.712;2023-08-06T10:10:05;99359.03;;;22.33;42.36
71795;BME280;59641;45.188;5.712;2023-08-06T10:12:37;99352.44;;;22.34;41.94
71795;BME280;59641;45.188;5.712;2023-08-06T10:15:08;99356.81;;;22.35;41.85
71795;BME280;59641;45.188;5.712;2023-08-06T10:17:36;99365.00;;;22.35;41.90
71795;BME280;59641;45.188;5.712;2023-08-06T10:20:04;99362.78;;;22.37;41.97
71795;BME280;59641;45.188;5.712;2023-08-06T10:22:33;99377.28;;;22.38;41.89
71795;BME280;59641;45.188;5.712;2023-08-06T10:24:59;99385.47;;;22.38;42.21
71795;BME280;59641;45.188;5.712;2023-08-06T10:27:30;99377.28;;;22.38;41.92
71795;BME280;59641;45.188;5.712;2023-08-06T10:30:23;99378.06;;;22.38;42.04
71795;BME280;59641;45.188;5.712;2023-08-06T10:32:53;99388.50;;;22.36;42.03
71795;BME280;59641;45.188;5.712;2023-08-06T10:38:14;99374.44;;;22.43;42.20
71795;BME280;59641;45.188;5.712;2023-08-06T10:41:00;99380.72;;;22.43;41.84
71795;BME280;59641;45.188;5.712;2023-08-06T10:43:27;99382.06;;;22.46;41.83
71795;BME280;59641;45.188;5.712;2023-08-06T10:45:53;99385.38;;;22.43;41.86
71795;BME280;59641;45.188;5.712;2023-08-06T10:48:35;99392.78;;;22.42;41.56
71795;BME280;59641;45.188;5.712;2023-08-06T10:51:02;99395.81;;;22.41;41.24
71795;BME280;59641;45.188;5.712;2023-08-06T10:53:28;99395.59;;;22.37;41.33
71795;BME280;59641;45.188;5.712;2023-08-06T10:55:53;99383.91;;;22.31;41.71
71795;BME280;59641;45.188;5.712;2023-08-06T10:58:19;99388.84;;;22.29;41.81
71795;BME280;59641;45.188;5.712;2023-08-06T11:00:45;99384.81;;;22.27;41.65
71795;BME280;59641;45.188;5.712;2023-08-06T11:03:11;99383.09;;;22.31;41.90
71795;BME280;59641;45.188;5.712;2023-08-06T11:05:36;99374.31;;;22.34;41.67
71795;BME280;59641;45.188;5.712;2023-08-06T11:08:02;99378.06;;;22.38;41.48
71795;BME280;59641;45.188;5.712;2023-08-06T11:10:27;99368.47;;;22.41;41.39
71795;BME280;59641;45.188;5.712;2023-08-06T11:12:53;99363.81;;;22.41;41.11
71795;BME280;59641;45.188;5.712;2023-08-06T11:15:20;99367.06;;;22.43;41.65
71795;BME280;59641;45.188;5.712;2023-08-06T11:17:46;99355.75;;;22.50;41.31
71795;BME280;59641;45.188;5.712;2023-08-06T11:20:12;99356.38;;;22.61;41.14
71795;BME280;59641;45.188;5.712;2023-08-06T11:22:38;99352.97;;;22.69;40.88
71795;BME280;59641;45.188;5.712;2023-08-06T11:25:05;99352.88;;;22.74;40.78
71795;BME280;59641;45.188;5.712;2023-08-06T11:27:31;99356.41;;;22.74;40.38
71795;BME280;59641;45.188;5.712;2023-08-06T11:29:57;99356.41;;;22.74;40.59
71795;BME280;59641;45.188;5.712;2023-08-06T11:32:22;99350.41;;;22.72;40.14
71795;BME280;59641;45.188;5.712;2023-08-06T11:34:48;99343.06;;;22.73;40.60
71795;BME280;59641;45.188;5.712;2023-08-06T11:37:13;99334.66;;;22.83;40.87
71795;BME280;59641;45.188;5.712;2023-08-06T11:39:46;99347.97;;;23.04;40.55
71795;BME280;59641;45.188;5.712;2023-08-06T11:42:11;99337.16;;;23.26;40.63
71795;BME280;59641;45.188;5.712;2023-08-06T11:44:37;99332.38;;;23.46;40.28
71795;BME280;59641;45.188;5.712;2023-08-06T11:47:04;99337.09;;;23.68;39.29
71795;BME280;59641;45.188;5.712;2023-08-06T11:49:48;99334.63;;;23.94;39.50
71795;BME280;59641;45.188;5.712;2023-08-06T11:52:21;99331.34;;;24.06;38.99
71795;BME280;59641;45.188;5.712;2023-08-06T11:57:31;99334.88;;;24.29;38.19
71795;BME280;59641;45.188;5.712;2023-08-06T12:00:08;99336.13;;;24.45;38.37
71795;BME280;59641;45.188;5.712;2023-08-06T12:02:34;99335.16;;;24.63;37.60
71795;BME280;59641;45.188;5.712;2023-08-06T12:05:04;99338.63;;;24.78;37.66
71795;BME280;59641;45.188;5.712;2023-08-06T12:07:37;99338.66;;;24.86;37.33
71795;BME280;59641;45.188;5.712;2023-08-06T12:10:04;99351.78;;;24.90;36.85
71795;BME280;59641;45.188;5.712;2023-08-06T12:12:30;99343.84;;;24.88;37.05
71795;BME280;59641;45.188;5.712;2023-08-06T12:14:55;99351.28;;;24.87;36.93
71795;BME280;59641;45.188;5.712;2023-08-06T12:17:22;99353.22;;;24.87;36.56
71795;BME280;59641;45.188;5.712;2023-08-06T12:19:47;99348.19;;;24.89;36.83
71795;BME280;59641;45.188;5.712;2023-08-06T12:22:14;99349.50;;;24.92;36.59
71795;BME280;59641;45.188;5.712;2023-08-06T12:24:43;99346.44;;;24.93;36.72
71795;BME280;59641;45.188;5.712;2023-08-06T12:27:09;99344.19;;;24.95;36.49
71795;BME280;59641;45.188;5.712;2023-08-06T12:29:35;99356.63;;;24.93;36.56
71795;BME280;59641;45.188;5.712;2023-08-06T12:32:01;99364.66;;;24.89;36.76
71795;BME280;59641;45.188;5.712;2023-08-06T12:34:26;99358.50;;;24.83;35.75
71795;BME280;59641;45.188;5.712;2023-08-06T12:36:52;99348.09;;;24.72;35.53
71795;BME280;59641;45.188;5.712;2023-08-06T12:39:17;99338.72;;;24.64;36.59
71795;BME280;59641;45.188;5.712;2023-08-06T12:41:43;99350.81;;;24.63;36.24
71795;BME280;59641;45.188;5.712;2023-08-06T12:44:11;99353.22;;;24.64;36.19
71795;BME280;59641;45.188;5.712;2023-08-06T12:46:36;99350.31;;;24.61;36.43
71795;BME280;59641;45.188;5.712;2023-08-06T12:49:02;99353.19;;;24.56;36.57
71795;BME280;59641;45.188;5.712;2023-08-06T12:51:27;99358.78;;;24.51;36.68
71795;BME280;59641;45.188;5.712;2023-08-06T12:53:52;99359.41;;;24.48;36.76
71795;BME280;59641;45.188;5.712;2023-08-06T12:56:18;99368.78;;;24.47;36.82
71795;BME280;59641;45.188;5.712;2023-08-06T12:58:43;99369.03;;;24.45;36.73
71795;BME280;59641;45.188;5.712;2023-08-06T13:01:09;99372.72;;;24.40;36.71
71795;BME280;59641;45.188;5.712;2023-08-06T13:03:35;99368.50;;;24.34;36.69
71795;BME280;59641;45.188;5.712;2023-08-06T13:06:00;99369.22;;;24.26;36.82